createdAt,value
2017-12-09T00:01:41.625Z,96.68
2017-12-09T00:04:16.772Z,96.51
2017-12-09T00:06:51.813Z,96.25
2017-12-09T00:09:26.652Z,96.02
2017-12-09T00:12:01.336Z,95.87
2017-12-09T00:14:36.220Z,96.05
2017-12-09T00:17:10.940Z,96.12
2017-12-09T00:19:45.997Z,96.14
2017-12-09T00:22:32.092Z,95.98
2017-12-09T00:25:06.344Z,95.87
2017-12-09T00:27:41.367Z,95.81
2017-12-09T00:30:16.038Z,95.67
2017-12-09T00:32:50.745Z,95.39
2017-12-09T00:35:25.672Z,95.23
2017-12-09T00:38:00.476Z,95.33
2017-12-09T00:40:35.240Z,95.29
2017-12-09T00:43:10.044Z,95.27
2017-12-09T00:45:44.949Z,95.34
2017-12-09T00:48:20.011Z,95.29
2017-12-09T00:50:55.308Z,95.20
2017-12-09T00:53:29.841Z,95.11
2017-12-09T00:56:04.745Z,95.05
2017-12-09T00:58:39.496Z,95.27
2017-12-09T01:01:13.980Z,95.42
2017-12-09T01:03:48.543Z,95.34
2017-12-09T01:06:23.484Z,95.27
2017-12-09T01:08:58.536Z,95.19
2017-12-09T01:11:33.669Z,95.17
2017-12-09T01:14:08.892Z,94.92
2017-12-09T01:16:55.192Z,94.99
2017-12-09T01:19:29.701Z,94.60
2017-12-09T01:22:04.739Z,94.44
2017-12-09T01:24:39.684Z,94.52
2017-12-09T01:27:14.540Z,94.58
2017-12-09T01:29:49.268Z,94.55
2017-12-09T01:32:24.372Z,94.50
2017-12-09T01:34:58.896Z,94.50
2017-12-09T01:37:34.027Z,94.35
2017-12-09T01:40:08.575Z,94.13
2017-12-09T01:42:43.408Z,94.15
2017-12-09T01:45:18.116Z,94.18
2017-12-09T01:47:52.944Z,94.16
2017-12-09T01:50:27.312Z,93.94
2017-12-09T01:53:02.080Z,93.79
2017-12-09T01:55:37.161Z,93.76
2017-12-09T01:58:12.448Z,93.51
2017-12-09T02:00:47.120Z,93.27
2017-12-09T02:03:21.364Z,93.06
2017-12-09T02:05:55.848Z,92.63
2017-12-09T02:08:30.496Z,92.45
2017-12-09T02:11:05.633Z,92.25
2017-12-09T02:13:39.833Z,91.97
2017-12-09T02:16:14.740Z,91.68
2017-12-09T02:18:48.848Z,91.64
2017-12-09T02:21:23.644Z,91.66
2017-12-09T02:23:58.352Z,91.82
2017-12-09T02:26:33.255Z,91.86
2017-12-09T02:29:08.308Z,91.79
2017-12-09T02:31:43.107Z,91.78
2017-12-09T02:34:17.968Z,91.62
2017-12-09T02:36:52.601Z,91.78
2017-12-09T02:39:27.320Z,91.92
2017-12-09T02:42:01.852Z,91.99
2017-12-09T02:44:36.295Z,91.89
2017-12-09T02:47:11.136Z,91.92
2017-12-09T02:49:46.748Z,92.06
2017-12-09T02:52:21.568Z,92.19
2017-12-09T02:54:56.397Z,92.21
2017-12-09T02:57:31.157Z,92.19
2017-12-09T03:00:05.737Z,92.34
2017-12-09T03:02:40.375Z,92.35
2017-12-09T03:05:14.927Z,92.29
2017-12-09T03:07:49.632Z,92.37
2017-12-09T03:10:24.461Z,92.61
2017-12-09T03:12:59.047Z,92.51
2017-12-09T03:15:33.869Z,92.45
2017-12-09T03:18:08.620Z,92.50
2017-12-09T03:20:44.236Z,92.54
2017-12-09T03:23:18.507Z,92.25
2017-12-09T03:25:53.564Z,92.23
2017-12-09T03:28:28.580Z,92.14
2017-12-09T03:31:03.620Z,92.17
2017-12-09T03:33:39.019Z,92.01
2017-12-09T03:36:13.772Z,92.11
2017-12-09T03:38:48.000Z,92.22
2017-12-09T03:41:23.028Z,92.01
2017-12-09T03:43:57.756Z,91.99
2017-12-09T03:46:32.441Z,91.92
2017-12-09T03:49:07.229Z,91.83
2017-12-09T03:51:41.880Z,91.89
2017-12-09T03:54:16.509Z,91.67
2017-12-09T03:56:51.012Z,91.52
2017-12-09T03:59:25.643Z,91.38
2017-12-09T04:02:00.248Z,91.35
2017-12-09T04:04:35.008Z,91.42
2017-12-09T04:07:09.809Z,91.59
2017-12-09T04:09:44.403Z,91.58
2017-12-09T04:12:19.581Z,91.69
2017-12-09T04:14:54.333Z,92.00
2017-12-09T04:17:29.148Z,92.37
2017-12-09T04:20:04.057Z,92.84
2017-12-09T04:22:39.064Z,93.29
2017-12-09T04:25:13.568Z,93.74
2017-12-09T04:27:48.289Z,94.27
2017-12-09T04:30:22.980Z,95.00
2017-12-09T04:32:57.824Z,95.75
2017-12-09T04:35:32.864Z,96.42
2017-12-09T04:38:07.617Z,96.67
2017-12-09T04:40:42.624Z,96.83
2017-12-09T04:43:17.692Z,97.10
2017-12-09T04:45:52.596Z,97.52
2017-12-09T04:48:27.309Z,98.05
2017-12-09T04:51:02.272Z,98.50
2017-12-09T04:53:36.873Z,98.93
2017-12-09T04:56:11.412Z,99.18
2017-12-09T04:58:46.050Z,99.20
2017-12-09T05:01:20.733Z,99.24
2017-12-09T05:03:55.504Z,99.08
2017-12-09T05:06:30.209Z,98.95
2017-12-09T05:09:04.397Z,99.00
2017-12-09T05:11:38.540Z,99.11
2017-12-09T05:14:13.316Z,99.08
2017-12-09T05:16:48.006Z,99.00
2017-12-09T05:19:22.777Z,99.01
2017-12-09T05:21:57.451Z,99.15
2017-12-09T05:24:32.091Z,99.41
2017-12-09T05:27:07.036Z,99.60
2017-12-09T05:29:41.841Z,99.64
2017-12-09T05:32:16.516Z,99.59
2017-12-09T05:34:51.005Z,99.57
2017-12-09T05:37:25.648Z,99.59
2017-12-09T05:40:00.464Z,99.47
2017-12-09T05:45:09.008Z,99.16
2017-12-09T05:47:43.801Z,98.99
2017-12-09T05:50:18.371Z,98.92
2017-12-09T05:52:53.153Z,98.98
2017-12-09T05:55:27.784Z,98.89
2017-12-09T05:58:02.436Z,98.71
2017-12-09T06:00:37.071Z,98.67
2017-12-09T06:03:11.669Z,98.84
2017-12-09T06:05:46.348Z,99.14
2017-12-09T06:08:20.992Z,99.29
2017-12-09T06:10:55.668Z,99.45
2017-12-09T06:13:30.308Z,99.50
2017-12-09T06:16:04.804Z,99.37
2017-12-09T06:18:39.364Z,99.43
2017-12-09T06:21:13.861Z,99.50
2017-12-09T06:23:48.753Z,99.32
2017-12-09T06:26:23.476Z,99.46
2017-12-09T06:28:58.148Z,99.66
2017-12-09T06:31:32.840Z,99.81
2017-12-09T06:34:07.529Z,99.97
2017-12-09T06:36:42.323Z,100.00
2017-12-09T06:39:17.153Z,100.00
2017-12-09T06:41:51.617Z,100.00
2017-12-09T06:44:26.512Z,100.00
2017-12-09T06:47:00.563Z,100.00
2017-12-09T06:49:35.164Z,100.00
2017-12-09T06:52:09.769Z,100.00
2017-12-09T06:54:44.624Z,99.99
2017-12-09T06:57:19.296Z,99.99
2017-12-09T06:59:53.904Z,99.93
2017-12-09T07:02:28.933Z,99.67
2017-12-09T07:05:03.312Z,99.35
2017-12-09T07:07:38.264Z,98.99
2017-12-09T07:10:13.115Z,98.88
2017-12-09T07:12:47.644Z,99.06
2017-12-09T07:15:21.969Z,99.21
2017-12-09T07:17:56.995Z,99.27
2017-12-09T07:20:31.554Z,99.52
2017-12-09T07:23:06.096Z,99.79
2017-12-09T07:25:40.804Z,100.00
2017-12-09T07:28:15.356Z,100.00
2017-12-09T07:30:50.458Z,100.00
2017-12-09T07:33:25.172Z,100.00
2017-12-09T07:35:59.876Z,100.00
2017-12-09T07:38:34.508Z,100.00
2017-12-09T07:41:09.284Z,100.00
2017-12-09T07:43:44.096Z,100.00
2017-12-09T07:46:18.885Z,100.00
2017-12-09T07:48:53.541Z,100.00
2017-12-09T07:51:28.325Z,100.00
2017-12-09T07:54:02.825Z,100.00
2017-12-09T07:56:37.496Z,100.00
2017-12-09T07:59:12.022Z,100.00
2017-12-09T08:01:46.721Z,100.00
2017-12-09T08:04:21.152Z,100.00
2017-12-09T08:06:55.784Z,100.00
2017-12-09T08:09:30.503Z,100.00
2017-12-09T08:12:05.184Z,100.00
2017-12-09T08:14:39.767Z,100.00
2017-12-09T08:17:14.320Z,100.00
2017-12-09T08:19:48.945Z,100.00
2017-12-09T08:22:23.432Z,99.68
2017-12-09T08:24:58.080Z,99.38
2017-12-09T08:27:32.776Z,99.19
2017-12-09T08:30:07.693Z,99.06
2017-12-09T08:32:42.016Z,99.24
2017-12-09T08:35:17.235Z,99.41
2017-12-09T08:37:51.520Z,99.62
2017-12-09T08:40:26.144Z,99.84
2017-12-09T08:43:00.676Z,99.93
2017-12-09T08:45:35.368Z,99.92
2017-12-09T08:48:10.424Z,99.66
2017-12-09T08:50:44.980Z,99.35
2017-12-09T08:53:19.739Z,99.24
2017-12-09T08:55:54.696Z,99.09
2017-12-09T08:58:29.224Z,99.00
2017-12-09T09:01:03.768Z,99.04
2017-12-09T09:03:38.277Z,99.13
2017-12-09T09:06:13.003Z,99.08
2017-12-09T09:08:47.740Z,99.13
2017-12-09T09:11:22.745Z,99.12
2017-12-09T09:13:57.197Z,99.20
2017-12-09T09:16:31.696Z,99.02
2017-12-09T09:19:06.456Z,99.08
2017-12-09T09:21:41.291Z,99.25
2017-12-09T09:24:15.826Z,99.25
2017-12-09T09:26:50.536Z,99.17
2017-12-09T09:29:25.073Z,99.08
2017-12-09T09:31:59.662Z,99.01
2017-12-09T09:34:34.592Z,98.87
2017-12-09T09:37:09.012Z,98.71
2017-12-09T09:39:43.964Z,98.41
2017-12-09T09:42:18.477Z,98.44
2017-12-09T09:44:53.332Z,98.34
2017-12-09T09:47:27.929Z,98.25
2017-12-09T09:50:02.784Z,98.15
2017-12-09T09:52:37.956Z,98.04
2017-12-09T09:55:12.455Z,97.86
2017-12-09T09:57:47.073Z,97.88
2017-12-09T10:00:22.256Z,98.15
2017-12-09T10:02:57.310Z,97.45
2017-12-09T10:05:31.905Z,97.09
2017-12-09T10:08:06.604Z,96.80
2017-12-09T10:10:41.548Z,96.77
2017-12-09T10:13:15.891Z,97.04
2017-12-09T10:15:50.692Z,97.20
2017-12-09T10:18:25.397Z,97.48
2017-12-09T10:21:00.268Z,97.39
2017-12-09T10:23:35.426Z,97.02
2017-12-09T10:26:10.021Z,96.83
2017-12-09T10:28:44.971Z,96.51
2017-12-09T10:31:19.444Z,95.77
2017-12-09T10:33:54.124Z,96.27
2017-12-09T10:36:28.801Z,96.14
2017-12-09T10:39:03.240Z,96.07
2017-12-09T10:41:37.847Z,95.91
2017-12-09T10:44:12.561Z,96.21
2017-12-09T10:46:47.312Z,96.22
2017-12-09T10:49:22.068Z,96.48
2017-12-09T10:51:56.764Z,96.70
2017-12-09T10:54:31.473Z,96.57
2017-12-09T10:57:06.252Z,96.44
2017-12-09T10:59:40.696Z,96.85
2017-12-09T11:02:15.509Z,96.94
2017-12-09T11:04:50.159Z,97.05
2017-12-09T11:07:25.009Z,97.25
2017-12-09T11:09:59.593Z,97.56
2017-12-09T11:12:34.188Z,97.16
2017-12-09T11:15:09.061Z,97.08
2017-12-09T11:17:45.125Z,96.92
2017-12-09T11:20:19.732Z,96.75
2017-12-09T11:22:54.628Z,96.92
2017-12-09T11:25:29.259Z,97.30
2017-12-09T11:28:03.817Z,96.96
2017-12-09T11:30:38.492Z,96.66
2017-12-09T11:33:13.720Z,96.78
2017-12-09T11:35:48.197Z,96.80
2017-12-09T11:38:23.155Z,96.71
2017-12-09T11:40:57.853Z,96.50
2017-12-09T11:43:32.977Z,96.54
2017-12-09T11:46:07.604Z,96.14
2017-12-09T11:48:42.608Z,95.87
2017-12-09T11:51:17.188Z,95.90
2017-12-09T11:53:52.093Z,95.92
2017-12-09T11:56:26.644Z,95.50
2017-12-09T11:59:01.481Z,95.50
2017-12-09T12:01:36.408Z,95.46
2017-12-09T12:04:10.961Z,95.25
2017-12-09T12:06:45.565Z,94.76
2017-12-09T12:09:20.336Z,94.87
2017-12-09T12:11:55.097Z,94.58
2017-12-09T12:14:29.748Z,94.42
2017-12-09T12:17:04.497Z,94.72
2017-12-09T12:19:39.284Z,94.17
2017-12-09T12:22:13.881Z,93.58
2017-12-09T12:24:48.523Z,93.15
2017-12-09T12:27:23.227Z,92.96
2017-12-09T12:29:58.009Z,92.66
2017-12-09T12:32:32.841Z,92.69
2017-12-09T12:35:07.544Z,92.45
2017-12-09T12:37:42.095Z,92.53
2017-12-09T12:40:17.157Z,92.29
2017-12-09T12:42:52.058Z,91.97
2017-12-09T12:45:26.661Z,91.84
2017-12-09T12:48:01.514Z,91.68
2017-12-09T12:50:36.333Z,91.50
2017-12-09T12:53:11.133Z,91.70
2017-12-09T12:55:45.989Z,92.05
2017-12-09T12:58:20.549Z,92.13
2017-12-09T13:00:55.496Z,92.32
2017-12-09T13:03:30.056Z,92.31
2017-12-09T13:06:04.840Z,91.79
2017-12-09T13:08:39.636Z,91.98
2017-12-09T13:11:14.377Z,91.66
2017-12-09T13:13:49.239Z,91.71
2017-12-09T13:16:24.017Z,91.32
2017-12-09T13:18:58.577Z,91.48
2017-12-09T13:21:33.628Z,90.93
2017-12-09T13:24:08.200Z,90.92
2017-12-09T13:26:42.961Z,91.15
2017-12-09T13:29:17.785Z,91.49
2017-12-09T13:31:52.436Z,91.39
2017-12-09T13:34:27.188Z,91.88
2017-12-09T13:37:01.945Z,92.22
2017-12-09T13:39:36.884Z,92.18
2017-12-09T13:42:11.813Z,92.25
2017-12-09T13:44:46.465Z,92.36
2017-12-09T13:47:22.270Z,92.30
2017-12-09T13:49:56.941Z,92.07
2017-12-09T13:52:31.681Z,92.19
2017-12-09T13:55:06.680Z,92.22
2017-12-09T13:57:41.064Z,92.25
2017-12-09T14:00:16.169Z,92.63
2017-12-09T14:02:50.692Z,92.52
2017-12-09T14:05:25.536Z,92.79
2017-12-09T14:08:00.615Z,92.86
2017-12-09T14:10:35.425Z,93.15
2017-12-09T14:13:10.856Z,92.87
2017-12-09T14:15:45.801Z,93.03
2017-12-09T14:18:20.624Z,93.12
2017-12-09T14:20:55.680Z,93.21
2017-12-09T14:23:30.968Z,93.24
2017-12-09T14:26:05.772Z,93.52
2017-12-09T14:28:40.439Z,93.65
2017-12-09T14:31:15.276Z,93.70
2017-12-09T14:33:50.024Z,94.01
2017-12-09T14:36:24.756Z,94.03
2017-12-09T14:38:59.605Z,94.13
2017-12-09T14:41:34.262Z,94.06
2017-12-09T14:44:09.332Z,94.08
2017-12-09T14:46:44.368Z,94.23
2017-12-09T14:49:19.293Z,94.07
2017-12-09T14:51:54.124Z,93.83
2017-12-09T14:54:29.084Z,93.79
2017-12-09T14:57:04.031Z,93.67
2017-12-09T14:59:38.784Z,93.41
2017-12-09T15:02:13.564Z,93.54
2017-12-09T15:04:48.469Z,93.73
2017-12-09T15:07:23.416Z,93.81
2017-12-09T15:09:58.669Z,94.04
2017-12-09T15:12:33.070Z,94.07
2017-12-09T15:15:08.023Z,94.08
2017-12-09T15:17:43.156Z,93.97
2017-12-09T15:20:18.238Z,93.67
2017-12-09T15:22:53.136Z,93.52
2017-12-09T15:25:28.298Z,93.67
2017-12-09T15:28:02.773Z,93.63
2017-12-09T15:30:37.668Z,93.61
2017-12-09T15:33:12.441Z,93.48
2017-12-09T15:35:47.226Z,93.51
2017-12-09T15:38:21.801Z,93.59
2017-12-09T15:40:56.500Z,93.58
2017-12-09T15:43:31.129Z,93.77
2017-12-09T15:46:05.856Z,93.97
2017-12-09T15:48:40.376Z,94.08
2017-12-09T15:51:15.116Z,94.03
2017-12-09T15:53:49.745Z,94.21
2017-12-09T15:56:24.812Z,94.09
2017-12-09T15:58:59.429Z,94.00
2017-12-09T16:01:34.109Z,93.72
2017-12-09T16:04:08.761Z,93.80
2017-12-09T16:06:43.425Z,94.00
2017-12-09T16:09:18.141Z,94.23
2017-12-09T16:11:53.043Z,94.33
2017-12-09T16:14:27.673Z,94.36
2017-12-09T16:17:02.392Z,94.36
2017-12-09T16:19:37.331Z,94.27
2017-12-09T16:22:12.012Z,94.26
2017-12-09T16:24:46.749Z,94.30
2017-12-09T16:27:21.532Z,94.59
2017-12-09T16:29:56.593Z,94.50
2017-12-09T16:32:31.292Z,94.73
2017-12-09T16:35:06.024Z,94.73
2017-12-09T16:37:40.997Z,94.85
2017-12-09T16:40:15.772Z,94.69
2017-12-09T16:42:50.517Z,94.94
2017-12-09T16:45:25.086Z,95.02
2017-12-09T16:47:59.776Z,94.97
2017-12-09T16:50:34.564Z,95.15
2017-12-09T16:53:09.022Z,95.07
2017-12-09T16:55:43.645Z,94.63
2017-12-09T16:58:18.132Z,94.69
2017-12-09T17:00:52.705Z,94.87
2017-12-09T17:03:27.217Z,94.81
2017-12-09T17:06:01.936Z,95.06
2017-12-09T17:08:36.616Z,95.08
2017-12-09T17:11:11.089Z,95.26
2017-12-09T17:13:45.720Z,94.98
2017-12-09T17:16:20.272Z,95.09
2017-12-09T17:18:55.076Z,95.30
2017-12-09T17:21:29.752Z,95.09
2017-12-09T17:24:04.528Z,95.26
2017-12-09T17:26:39.284Z,95.27
2017-12-09T17:29:14.593Z,95.46
2017-12-09T17:31:49.272Z,95.34
2017-12-09T17:34:23.784Z,95.50
2017-12-09T17:36:58.465Z,95.50
2017-12-09T17:39:33.249Z,95.39
2017-12-09T17:42:08.163Z,95.14
2017-12-09T17:44:42.781Z,95.00
2017-12-09T17:47:17.715Z,94.78
2017-12-09T17:49:52.608Z,94.71
2017-12-09T17:52:27.895Z,94.87
2017-12-09T17:55:02.396Z,94.67
2017-12-09T17:57:37.072Z,94.54
2017-12-09T18:00:11.384Z,94.43
2017-12-09T18:02:46.281Z,94.37
2017-12-09T18:05:21.109Z,94.34
2017-12-09T18:07:56.056Z,94.28
2017-12-09T18:10:30.458Z,93.92
2017-12-09T18:13:05.036Z,93.61
2017-12-09T18:15:39.541Z,93.59
2017-12-09T18:18:14.548Z,93.93
2017-12-09T18:20:49.500Z,93.99
2017-12-09T18:23:24.318Z,94.25
2017-12-09T18:25:59.067Z,94.28
2017-12-09T18:28:33.670Z,94.53
2017-12-09T18:31:08.318Z,94.48
2017-12-09T18:33:43.021Z,94.80
2017-12-09T18:36:17.739Z,94.89
2017-12-09T18:38:52.452Z,95.01
2017-12-09T18:41:27.236Z,95.08
2017-12-09T18:44:02.428Z,95.23
2017-12-09T18:46:36.868Z,95.33
2017-12-09T18:49:11.596Z,95.17
2017-12-09T18:51:46.738Z,95.15
2017-12-09T18:54:21.086Z,95.40
2017-12-09T18:56:55.706Z,95.83
2017-12-09T18:59:30.404Z,96.14
2017-12-09T19:02:05.133Z,96.33
2017-12-09T19:04:39.890Z,96.24
2017-12-09T19:07:14.697Z,96.21
2017-12-09T19:09:49.441Z,96.11
2017-12-09T19:12:24.581Z,96.03
2017-12-09T19:14:59.097Z,96.03
2017-12-09T19:17:33.624Z,95.73
2017-12-09T19:20:08.613Z,95.76
2017-12-09T19:22:42.984Z,95.70
2017-12-09T19:25:17.541Z,95.70
2017-12-09T19:27:52.194Z,95.74
2017-12-09T19:30:26.893Z,95.65
2017-12-09T19:33:01.649Z,95.63
2017-12-09T19:35:36.425Z,95.82
2017-12-09T19:38:11.157Z,95.84
2017-12-09T19:40:45.883Z,95.79
2017-12-09T19:43:20.557Z,95.45
2017-12-09T19:45:55.187Z,95.40
2017-12-09T19:48:29.888Z,95.52
2017-12-09T19:51:04.685Z,95.43
2017-12-09T19:53:39.263Z,95.58
2017-12-09T19:56:14.120Z,95.50
2017-12-09T19:58:48.992Z,95.42
2017-12-09T20:01:23.804Z,95.40
2017-12-09T20:03:58.961Z,95.10
2017-12-09T20:06:33.384Z,95.10
2017-12-09T20:09:08.297Z,94.72
2017-12-09T20:11:43.219Z,94.60
2017-12-09T20:14:18.148Z,94.65
2017-12-09T20:16:53.120Z,94.12
2017-12-09T20:19:27.709Z,94.18
2017-12-09T20:22:02.464Z,94.37
2017-12-09T20:24:37.013Z,94.19
2017-12-09T20:27:11.816Z,93.90
2017-12-09T20:29:46.527Z,93.99
2017-12-09T20:32:21.117Z,93.68
2017-12-09T20:34:55.740Z,93.58
2017-12-09T20:37:30.457Z,93.39
2017-12-09T20:40:05.761Z,93.39
2017-12-09T20:42:40.210Z,93.54
2017-12-09T20:45:14.664Z,93.06
2017-12-09T20:47:48.825Z,92.82
2017-12-09T20:50:23.496Z,92.55
2017-12-09T20:52:58.411Z,92.38
2017-12-09T20:55:32.604Z,92.42
2017-12-09T20:58:07.437Z,92.19
2017-12-09T21:00:42.369Z,92.24
2017-12-09T21:03:17.009Z,92.27
2017-12-09T21:05:51.825Z,92.09
2017-12-09T21:08:26.763Z,91.92
2017-12-09T21:11:01.585Z,91.63
2017-12-09T21:13:36.153Z,91.43
2017-12-09T21:16:11.789Z,91.34
2017-12-09T21:18:46.711Z,90.80
2017-12-09T21:21:21.712Z,90.55
2017-12-09T21:23:56.921Z,90.72
2017-12-09T21:26:31.600Z,90.57
2017-12-09T21:29:06.532Z,90.28
2017-12-09T21:31:41.029Z,90.49
2017-12-09T21:34:15.794Z,90.22
2017-12-09T21:36:50.705Z,89.81
2017-12-09T21:39:25.368Z,89.71
2017-12-09T21:42:00.184Z,89.77
2017-12-09T21:44:34.812Z,89.93
2017-12-09T21:47:09.840Z,90.08
2017-12-09T21:49:44.615Z,89.89
2017-12-09T21:52:19.176Z,90.02
2017-12-09T21:54:53.849Z,89.85
2017-12-09T21:57:28.700Z,89.69
2017-12-09T22:00:03.242Z,89.60
2017-12-09T22:02:38.187Z,89.25
2017-12-09T22:05:13.032Z,89.37
2017-12-09T22:07:48.097Z,89.38
2017-12-09T22:10:22.719Z,89.58
2017-12-09T22:12:57.569Z,89.54
2017-12-09T22:15:32.188Z,89.19
2017-12-09T22:18:06.980Z,89.20
2017-12-09T22:20:42.137Z,89.13
2017-12-09T22:23:16.565Z,89.09
2017-12-09T22:25:51.229Z,88.92
2017-12-09T22:28:25.991Z,88.96
2017-12-09T22:31:00.716Z,88.53
2017-12-09T22:33:35.390Z,88.28
2017-12-09T22:36:10.656Z,88.17
2017-12-09T22:38:45.256Z,88.49
2017-12-09T22:41:19.524Z,88.67
2017-12-09T22:43:54.256Z,88.74
2017-12-09T22:46:28.792Z,88.98
2017-12-09T22:49:03.557Z,89.26
2017-12-09T22:51:38.067Z,89.56
2017-12-09T22:54:12.854Z,89.66
2017-12-09T22:56:47.602Z,89.83
2017-12-09T22:59:22.172Z,89.68
2017-12-09T23:01:56.750Z,89.31
2017-12-09T23:04:31.788Z,89.53
2017-12-09T23:07:06.784Z,89.46
2017-12-09T23:09:41.433Z,89.80
2017-12-09T23:12:16.169Z,90.17
2017-12-09T23:14:50.921Z,90.52
2017-12-09T23:17:25.644Z,91.05
2017-12-09T23:20:00.456Z,91.70
2017-12-09T23:22:35.247Z,92.51
2017-12-09T23:25:10.009Z,93.10
2017-12-09T23:27:44.982Z,93.41
2017-12-09T23:30:19.768Z,94.20
2017-12-09T23:32:54.496Z,93.23
2017-12-09T23:35:29.125Z,92.26
2017-12-09T23:38:03.916Z,91.84
2017-12-09T23:40:38.448Z,91.33
2017-12-09T23:43:13.231Z,90.95
2017-12-09T23:45:47.976Z,90.90
2017-12-09T23:48:22.701Z,90.98
2017-12-09T23:50:57.536Z,90.86
2017-12-09T23:53:32.463Z,90.85
2017-12-09T23:56:07.073Z,90.54
2017-12-09T23:58:41.773Z,90.68
